sensor_id;sensor_type;location;lat;lon;timestamp;P1;durP1;ratioP1;P2;durP2;ratioP2
3293;SDS011;1659;51.470;6.770;2023-04-25T00:01:22;13.07;;;6.63;;
3293;SDS011;1659;51.470;6.770;2023-04-25T00:03:49;27.77;;;6.77;;
3293;SDS011;1659;51.470;6.770;2023-04-25T00:06:15;12.07;;;5.77;;
3293;SDS011;1659;51.470;6.770;2023-04-25T00:08:44;15.17;;;5.97;;
3293;SDS011;1659;51.470;6.770;2023-04-25T00:11:10;9.97;;;5.27;;
3293;SDS011;1659;51.470;6.770;2023-04-25T00:13:37;13.83;;;5.20;;
3293;SDS011;1659;51.470;6.770;2023-04-25T00:16:06;13.87;;;5.90;;
3293;SDS011;1659;51.470;6.770;2023-04-25T00:18:33;18.10;;;6.03;;
3293;SDS011;1659;51.470;6.770;2023-04-25T00:20:59;12.27;;;5.97;;
3293;SDS011;1659;51.470;6.770;2023-04-25T00:23:26;11.70;;;5.90;;
3293;SDS011;1659;51.470;6.770;2023-04-25T00:25:54;13.83;;;5.73;;
3293;SDS011;1659;51.470;6.770;2023-04-25T00:28:20;14.33;;;6.17;;
3293;SDS011;1659;51.470;6.770;2023-04-25T00:30:47;13.17;;;6.37;;
3293;SDS011;1659;51.470;6.770;2023-04-25T00:33:13;11.43;;;6.17;;
3293;SDS011;1659;51.470;6.770;2023-04-25T00:35:40;13.23;;;6.03;;
3293;SDS011;1659;51.470;6.770;2023-04-25T00:38:06;10.23;;;5.80;;
3293;SDS011;1659;51.470;6.770;2023-04-25T00:40:33;11.60;;;6.07;;
3293;SDS011;1659;51.470;6.770;2023-04-25T00:43:01;9.93;;;5.60;;
3293;SDS011;1659;51.470;6.770;2023-04-25T00:45:28;9.63;;;5.87;;
3293;SDS011;1659;51.470;6.770;2023-04-25T00:47:55;14.40;;;6.30;;
3293;SDS011;1659;51.470;6.770;2023-04-25T00:50:25;18.13;;;5.60;;
3293;SDS011;1659;51.470;6.770;2023-04-25T00:59:44;14.53;;;5.50;;
3293;SDS011;1659;51.470;6.770;2023-04-25T01:02:11;9.47;;;5.07;;
3293;SDS011;1659;51.470;6.770;2023-04-25T01:04:38;8.93;;;5.70;;
3293;SDS011;1659;51.470;6.770;2023-04-25T01:07:05;6.73;;;4.77;;
3293;SDS011;1659;51.470;6.770;2023-04-25T01:09:32;9.30;;;4.70;;
3293;SDS011;1659;51.470;6.770;2023-04-25T01:11:58;14.67;;;4.90;;
3293;SDS011;1659;51.470;6.770;2023-04-25T01:14:25;12.03;;;6.10;;
3293;SDS011;1659;51.470;6.770;2023-04-25T01:16:53;12.23;;;5.87;;
3293;SDS011;1659;51.470;6.770;2023-04-25T01:19:20;7.87;;;4.70;;
3293;SDS011;1659;51.470;6.770;2023-04-25T01:21:52;10.90;;;5.07;;
3293;SDS011;1659;51.470;6.770;2023-04-25T01:24:39;11.67;;;4.67;;
3293;SDS011;1659;51.470;6.770;2023-04-25T01:27:05;17.03;;;6.30;;
3293;SDS011;1659;51.470;6.770;2023-04-25T01:29:33;8.13;;;4.60;;
3293;SDS011;1659;51.470;6.770;2023-04-25T01:32:10;10.77;;;5.60;;
3293;SDS011;1659;51.470;6.770;2023-04-25T01:34:39;11.60;;;5.80;;
3293;SDS011;1659;51.470;6.770;2023-04-25T01:37:11;13.23;;;5.63;;
3293;SDS011;1659;51.470;6.770;2023-04-25T01:39:38;14.17;;;5.37;;
3293;SDS011;1659;51.470;6.770;2023-04-25T01:42:04;12.40;;;5.10;;
3293;SDS011;1659;51.470;6.770;2023-04-25T01:44:32;17.57;;;4.97;;
3293;SDS011;1659;51.470;6.770;2023-04-25T01:46:59;13.00;;;6.23;;
3293;SDS011;1659;51.470;6.770;2023-04-25T01:49:26;9.27;;;4.73;;
3293;SDS011;1659;51.470;6.770;2023-04-25T01:51:52;13.80;;;5.90;;
3293;SDS011;1659;51.470;6.770;2023-04-25T01:54:20;10.03;;;5.40;;
3293;SDS011;1659;51.470;6.770;2023-04-25T01:56:49;15.53;;;5.37;;
3293;SDS011;1659;51.470;6.770;2023-04-25T01:59:17;11.60;;;6.20;;
3293;SDS011;1659;51.470;6.770;2023-04-25T02:01:44;12.20;;;5.03;;
3293;SDS011;1659;51.470;6.770;2023-04-25T02:04:11;12.33;;;4.80;;
3293;SDS011;1659;51.470;6.770;2023-04-25T02:06:37;13.83;;;5.07;;
3293;SDS011;1659;51.470;6.770;2023-04-25T02:09:04;8.10;;;4.80;;
3293;SDS011;1659;51.470;6.770;2023-04-25T02:11:32;10.60;;;5.43;;
3293;SDS011;1659;51.470;6.770;2023-04-25T02:13:58;16.50;;;5.13;;
3293;SDS011;1659;51.470;6.770;2023-04-25T02:16:25;9.70;;;4.97;;
3293;SDS011;1659;51.470;6.770;2023-04-25T02:18:51;13.37;;;5.33;;
3293;SDS011;1659;51.470;6.770;2023-04-25T02:21:19;10.87;;;5.00;;
3293;SDS011;1659;51.470;6.770;2023-04-25T02:23:45;11.80;;;6.50;;
3293;SDS011;1659;51.470;6.770;2023-04-25T02:26:13;7.43;;;4.90;;
3293;SDS011;1659;51.470;6.770;2023-04-25T02:28:41;11.27;;;5.93;;
3293;SDS011;1659;51.470;6.770;2023-04-25T02:31:08;12.53;;;5.47;;
3293;SDS011;1659;51.470;6.770;2023-04-25T02:33:34;12.90;;;5.90;;
3293;SDS011;1659;51.470;6.770;2023-04-25T02:36:01;12.10;;;5.47;;
3293;SDS011;1659;51.470;6.770;2023-04-25T02:38:28;8.13;;;4.80;;
3293;SDS011;1659;51.470;6.770;2023-04-25T02:40:55;13.07;;;5.50;;
3293;SDS011;1659;51.470;6.770;2023-04-25T02:43:21;9.07;;;5.23;;
3293;SDS011;1659;51.470;6.770;2023-04-25T02:45:49;5.70;;;4.47;;
3293;SDS011;1659;51.470;6.770;2023-04-25T02:48:21;6.87;;;4.17;;
3293;SDS011;1659;51.470;6.770;2023-04-25T02:57:44;9.80;;;5.00;;
3293;SDS011;1659;51.470;6.770;2023-04-25T03:10:42;9.17;;;4.50;;
3293;SDS011;1659;51.470;6.770;2023-04-25T03:14:57;15.27;;;5.63;;
3293;SDS011;1659;51.470;6.770;2023-04-25T03:16:58;12.07;;;5.23;;
3293;SDS011;1659;51.470;6.770;2023-04-25T03:19:25;10.00;;;5.10;;
3293;SDS011;1659;51.470;6.770;2023-04-25T03:21:51;15.20;;;5.00;;
3293;SDS011;1659;51.470;6.770;2023-04-25T03:24:18;11.27;;;6.17;;
3293;SDS011;1659;51.470;6.770;2023-04-25T03:26:47;14.47;;;4.67;;
3293;SDS011;1659;51.470;6.770;2023-04-25T03:29:13;16.17;;;5.70;;
3293;SDS011;1659;51.470;6.770;2023-04-25T03:31:40;7.63;;;4.50;;
3293;SDS011;1659;51.470;6.770;2023-04-25T03:34:06;13.20;;;4.93;;
3293;SDS011;1659;51.470;6.770;2023-04-25T03:36:33;14.63;;;5.43;;
3293;SDS011;1659;51.470;6.770;2023-04-25T03:38:59;11.87;;;4.80;;
3293;SDS011;1659;51.470;6.770;2023-04-25T03:41:26;8.57;;;5.17;;
3293;SDS011;1659;51.470;6.770;2023-04-25T03:43:59;18.97;;;5.27;;
3293;SDS011;1659;51.470;6.770;2023-04-25T03:46:25;13.50;;;5.80;;
3293;SDS011;1659;51.470;6.770;2023-04-25T03:48:52;10.57;;;4.40;;
3293;SDS011;1659;51.470;6.770;2023-04-25T03:51:31;12.40;;;5.97;;
3293;SDS011;1659;51.470;6.770;2023-04-25T03:53:58;12.30;;;5.23;;
3293;SDS011;1659;51.470;6.770;2023-04-25T03:56:35;14.33;;;6.03;;
3293;SDS011;1659;51.470;6.770;2023-04-25T03:59:06;11.73;;;4.90;;
3293;SDS011;1659;51.470;6.770;2023-04-25T04:01:33;19.33;;;5.37;;
3293;SDS011;1659;51.470;6.770;2023-04-25T04:04:00;14.40;;;4.70;;
3293;SDS011;1659;51.470;6.770;2023-04-25T04:06:27;16.87;;;5.47;;
3293;SDS011;1659;51.470;6.770;2023-04-25T04:08:53;8.47;;;4.17;;
3293;SDS011;1659;51.470;6.770;2023-04-25T04:11:20;14.03;;;6.10;;
3293;SDS011;1659;51.470;6.770;2023-04-25T04:13:46;13.27;;;6.07;;
3293;SDS011;1659;51.470;6.770;2023-04-25T04:16:14;12.50;;;5.53;;
3293;SDS011;1659;51.470;6.770;2023-04-25T04:18:41;10.70;;;5.80;;
3293;SDS011;1659;51.470;6.770;2023-04-25T04:21:07;10.53;;;5.47;;
3293;SDS011;1659;51.470;6.770;2023-04-25T04:23:34;10.77;;;5.07;;
3293;SDS011;1659;51.470;6.770;2023-04-25T04:26:02;16.70;;;7.70;;
3293;SDS011;1659;51.470;6.770;2023-04-25T04:28:29;11.60;;;5.87;;
3293;SDS011;1659;51.470;6.770;2023-04-25T04:30:55;18.13;;;6.47;;
3293;SDS011;1659;51.470;6.770;2023-04-25T04:33:24;15.83;;;6.50;;
3293;SDS011;1659;51.470;6.770;2023-04-25T04:35:50;17.03;;;6.37;;
3293;SDS011;1659;51.470;6.770;2023-04-25T04:38:18;18.20;;;6.33;;
3293;SDS011;1659;51.470;6.770;2023-04-25T04:40:46;15.00;;;6.20;;
3293;SDS011;1659;51.470;6.770;2023-04-25T04:43:13;13.47;;;5.53;;
3293;SDS011;1659;51.470;6.770;2023-04-25T04:45:42;15.90;;;5.20;;
3293;SDS011;1659;51.470;6.770;2023-04-25T04:48:09;15.73;;;5.70;;
3293;SDS011;1659;51.470;6.770;2023-04-25T04:50:38;11.70;;;5.90;;
3293;SDS011;1659;51.470;6.770;2023-04-25T04:53:05;12.40;;;5.90;;
3293;SDS011;1659;51.470;6.770;2023-04-25T04:55:32;11.07;;;6.73;;
3293;SDS011;1659;51.470;6.770;2023-04-25T04:57:58;15.03;;;5.80;;
3293;SDS011;1659;51.470;6.770;2023-04-25T05:00:25;15.60;;;5.40;;
3293;SDS011;1659;51.470;6.770;2023-04-25T05:02:52;11.57;;;5.30;;
3293;SDS011;1659;51.470;6.770;2023-04-25T05:05:18;31.30;;;5.50;;
3293;SDS011;1659;51.470;6.770;2023-04-25T05:07:46;7.07;;;4.80;;
3293;SDS011;1659;51.470;6.770;2023-04-25T05:10:13;11.70;;;5.20;;
3293;SDS011;1659;51.470;6.770;2023-04-25T05:12:40;9.07;;;6.60;;
3293;SDS011;1659;51.470;6.770;2023-04-25T05:15:07;10.57;;;5.37;;
3293;SDS011;1659;51.470;6.770;2023-04-25T05:17:33;9.37;;;4.87;;
3293;SDS011;1659;51.470;6.770;2023-04-25T05:20:00;11.33;;;5.40;;
3293;SDS011;1659;51.470;6.770;2023-04-25T05:22:26;17.27;;;6.40;;
3293;SDS011;1659;51.470;6.770;2023-04-25T05:24:54;18.77;;;6.27;;
3293;SDS011;1659;51.470;6.770;2023-04-25T05:27:21;19.90;;;6.73;;
3293;SDS011;1659;51.470;6.770;2023-04-25T05:29:48;11.13;;;5.40;;
3293;SDS011;1659;51.470;6.770;2023-04-25T05:32:14;21.50;;;5.73;;
3293;SDS011;1659;51.470;6.770;2023-04-25T05:34:41;18.57;;;6.27;;
3293;SDS011;1659;51.470;6.770;2023-04-25T05:37:07;11.50;;;6.07;;
3293;SDS011;1659;51.470;6.770;2023-04-25T05:39:34;9.83;;;4.93;;
3293;SDS011;1659;51.470;6.770;2023-04-25T05:42:02;20.00;;;5.67;;
3293;SDS011;1659;51.470;6.770;2023-04-25T05:44:29;12.60;;;5.20;;
3293;SDS011;1659;51.470;6.770;2023-04-25T05:46:56;9.30;;;5.40;;
3293;SDS011;1659;51.470;6.770;2023-04-25T05:49:23;15.40;;;5.57;;
3293;SDS011;1659;51.470;6.770;2023-04-25T05:51:49;12.40;;;5.80;;
3293;SDS011;1659;51.470;6.770;2023-04-25T05:54:16;19.70;;;6.30;;
3293;SDS011;1659;51.470;6.770;2023-04-25T05:56:42;18.90;;;6.30;;
3293;SDS011;1659;51.470;6.770;2023-04-25T05:59:10;15.27;;;5.30;;
3293;SDS011;1659;51.470;6.770;2023-04-25T06:01:37;11.83;;;5.90;;
3293;SDS011;1659;51.470;6.770;2023-04-25T06:04:03;15.67;;;5.17;;
3293;SDS011;1659;51.470;6.770;2023-04-25T06:06:30;12.70;;;5.57;;
3293;SDS011;1659;51.470;6.770;2023-04-25T06:08:56;13.73;;;5.83;;
3293;SDS011;1659;51.470;6.770;2023-04-25T06:11:23;9.33;;;5.17;;
3293;SDS011;1659;51.470;6.770;2023-04-25T06:13:50;7.20;;;4.73;;
3293;SDS011;1659;51.470;6.770;2023-04-25T06:16:17;9.90;;;4.90;;
3293;SDS011;1659;51.470;6.770;2023-04-25T06:18:44;7.63;;;5.20;;
3293;SDS011;1659;51.470;6.770;2023-04-25T06:21:11;6.77;;;3.87;;
3293;SDS011;1659;51.470;6.770;2023-04-25T06:23:37;13.90;;;6.50;;
3293;SDS011;1659;51.470;6.770;2023-04-25T06:26:04;12.23;;;5.00;;
3293;SDS011;1659;51.470;6.770;2023-04-25T06:28:30;12.40;;;6.33;;
3293;SDS011;1659;51.470;6.770;2023-04-25T06:30:57;14.03;;;4.87;;
3293;SDS011;1659;51.470;6.770;2023-04-25T06:33:25;12.00;;;5.00;;
3293;SDS011;1659;51.470;6.770;2023-04-25T06:35:51;14.00;;;5.20;;
3293;SDS011;1659;51.470;6.770;2023-04-25T06:38:18;9.10;;;5.10;;
3293;SDS011;1659;51.470;6.770;2023-04-25T06:40:45;13.73;;;5.50;;
3293;SDS011;1659;51.470;6.770;2023-04-25T06:43:11;14.00;;;5.90;;
3293;SDS011;1659;51.470;6.770;2023-04-25T06:45:38;15.10;;;6.30;;
3293;SDS011;1659;51.470;6.770;2023-04-25T06:48:04;21.97;;;7.00;;
3293;SDS011;1659;51.470;6.770;2023-04-25T06:50:33;14.87;;;5.77;;
3293;SDS011;1659;51.470;6.770;2023-04-25T06:52:59;14.57;;;7.67;;
3293;SDS011;1659;51.470;6.770;2023-04-25T06:55:26;27.77;;;8.50;;
3293;SDS011;1659;51.470;6.770;2023-04-25T06:57:53;18.63;;;7.33;;
3293;SDS011;1659;51.470;6.770;2023-04-25T07:00:20;17.40;;;9.03;;
3293;SDS011;1659;51.470;6.770;2023-04-25T07:02:47;15.77;;;7.17;;
3293;SDS011;1659;51.470;6.770;2023-04-25T07:05:13;15.00;;;7.83;;
3293;SDS011;1659;51.470;6.770;2023-04-25T07:07:41;24.47;;;8.47;;
3293;SDS011;1659;51.470;6.770;2023-04-25T07:10:08;12.90;;;6.67;;
3293;SDS011;1659;51.470;6.770;2023-04-25T07:12:35;13.87;;;7.47;;
3293;SDS011;1659;51.470;6.770;2023-04-25T07:15:01;17.20;;;6.87;;
3293;SDS011;1659;51.470;6.770;2023-04-25T07:17:31;17.20;;;7.07;;
3293;SDS011;1659;51.470;6.770;2023-04-25T07:19:58;14.77;;;5.63;;
3293;SDS011;1659;51.470;6.770;2023-04-25T07:22:25;14.70;;;6.40;;
3293;SDS011;1659;51.470;6.770;2023-04-25T07:24:55;13.13;;;6.00;;
3293;SDS011;1659;51.470;6.770;2023-04-25T07:27:21;7.93;;;5.20;;
3293;SDS011;1659;51.470;6.770;2023-04-25T07:29:48;11.23;;;5.13;;
3293;SDS011;1659;51.470;6.770;2023-04-25T07:32:17;10.50;;;5.20;;
3293;SDS011;1659;51.470;6.770;2023-04-25T07:34:46;9.80;;;5.50;;
3293;SDS011;1659;51.470;6.770;2023-04-25T07:37:18;7.30;;;5.70;;
3293;SDS011;1659;51.470;6.770;2023-04-25T07:39:47;9.00;;;5.60;;
3293;SDS011;1659;51.470;6.770;2023-04-25T07:42:15;9.13;;;6.37;;
3293;SDS011;1659;51.470;6.770;2023-04-25T07:44:42;10.60;;;4.97;;
3293;SDS011;1659;51.470;6.770;2023-04-25T07:47:08;12.77;;;7.40;;
3293;SDS011;1659;51.470;6.770;2023-04-25T07:49:36;13.03;;;5.60;;
3293;SDS011;1659;51.470;6.770;2023-04-25T07:52:06;10.13;;;5.03;;
3293;SDS011;1659;51.470;6.770;2023-04-25T07:54:32;6.67;;;4.33;;
3293;SDS011;1659;51.470;6.770;2023-04-25T07:57:20;10.17;;;5.50;;
3293;SDS011;1659;51.470;6.770;2023-04-25T08:00:06;8.37;;;4.67;;
3293;SDS011;1659;51.470;6.770;2023-04-25T08:02:36;13.43;;;5.27;;
3293;SDS011;1659;51.470;6.770;2023-04-25T08:05:03;12.87;;;4.90;;
3293;SDS011;1659;51.470;6.770;2023-04-25T08:07:35;10.53;;;5.20;;
3293;SDS011;1659;51.470;6.770;2023-04-25T08:10:24;7.27;;;5.27;;
3293;SDS011;1659;51.470;6.770;2023-04-25T08:12:52;8.83;;;4.47;;
3293;SDS011;1659;51.470;6.770;2023-04-25T08:15:19;9.50;;;3.57;;
3293;SDS011;1659;51.470;6.770;2023-04-25T08:17:48;6.93;;;3.87;;
3293;SDS011;1659;51.470;6.770;2023-04-25T08:20:17;7.77;;;4.70;;
3293;SDS011;1659;51.470;6.770;2023-04-25T08:22:44;9.37;;;4.70;;
3293;SDS011;1659;51.470;6.770;2023-04-25T08:25:10;11.03;;;5.07;;
3293;SDS011;1659;51.470;6.770;2023-04-25T08:27:37;12.30;;;4.90;;
3293;SDS011;1659;51.470;6.770;2023-04-25T08:30:06;11.87;;;5.37;;
3293;SDS011;1659;51.470;6.770;2023-04-25T08:32:33;9.33;;;5.10;;
3293;SDS011;1659;51.470;6.770;2023-04-25T08:35:03;13.73;;;4.70;;
3293;SDS011;1659;51.470;6.770;2023-04-25T08:37:30;8.73;;;3.77;;
3293;SDS011;1659;51.470;6.770;2023-04-25T08:39:57;9.47;;;4.27;;
3293;SDS011;1659;51.470;6.770;2023-04-25T08:42:23;9.60;;;4.83;;
3293;SDS011;1659;51.470;6.770;2023-04-25T08:44:51;7.13;;;5.07;;
3293;SDS011;1659;51.470;6.770;2023-04-25T08:47:21;7.90;;;3.93;;
3293;SDS011;1659;51.470;6.770;2023-04-25T08:49:50;6.97;;;3.20;;
3293;SDS011;1659;51.470;6.770;2023-04-25T08:52:21;11.23;;;3.60;;
3293;SDS011;1659;51.470;6.770;2023-04-25T08:54:48;12.53;;;4.60;;
3293;SDS011;1659;51.470;6.770;2023-04-25T08:57:16;7.90;;;3.70;;
3293;SDS011;1659;51.470;6.770;2023-04-25T08:59:44;3.73;;;2.83;;
3293;SDS011;1659;51.470;6.770;2023-04-25T09:02:13;7.63;;;2.77;;
3293;SDS011;1659;51.470;6.770;2023-04-25T09:04:43;6.50;;;2.83;;
3293;SDS011;1659;51.470;6.770;2023-04-25T09:07:10;6.83;;;3.10;;
3293;SDS011;1659;51.470;6.770;2023-04-25T09:09:37;5.20;;;2.70;;
3293;SDS011;1659;51.470;6.770;2023-04-25T09:12:04;7.30;;;3.60;;
3293;SDS011;1659;51.470;6.770;2023-04-25T09:14:31;7.33;;;2.37;;
3293;SDS011;1659;51.470;6.770;2023-04-25T09:16:58;2.40;;;2.20;;
3293;SDS011;1659;51.470;6.770;2023-04-25T09:19:27;12.13;;;4.03;;
3293;SDS011;1659;51.470;6.770;2023-04-25T09:21:58;9.23;;;3.47;;
3293;SDS011;1659;51.470;6.770;2023-04-25T09:24:35;8.80;;;4.10;;
3293;SDS011;1659;51.470;6.770;2023-04-25T09:27:03;7.00;;;3.27;;
3293;SDS011;1659;51.470;6.770;2023-04-25T09:29:33;3.60;;;2.33;;
3293;SDS011;1659;51.470;6.770;2023-04-25T09:32:10;7.90;;;2.77;;
3293;SDS011;1659;51.470;6.770;2023-04-25T09:34:42;4.60;;;2.87;;
3293;SDS011;1659;51.470;6.770;2023-04-25T09:37:11;4.10;;;2.90;;
3293;SDS011;1659;51.470;6.770;2023-04-25T09:39:38;6.97;;;2.47;;
3293;SDS011;1659;51.470;6.770;2023-04-25T09:42:05;6.40;;;2.70;;
3293;SDS011;1659;51.470;6.770;2023-04-25T09:44:32;4.33;;;2.00;;
3293;SDS011;1659;51.470;6.770;2023-04-25T09:46:58;4.27;;;2.27;;
3293;SDS011;1659;51.470;6.770;2023-04-25T09:49:25;2.03;;;1.70;;
3293;SDS011;1659;51.470;6.770;2023-04-25T09:51:56;6.10;;;2.00;;
3293;SDS011;1659;51.470;6.770;2023-04-25T09:54:24;3.60;;;1.87;;
3293;SDS011;1659;51.470;6.770;2023-04-25T09:56:52;2.73;;;2.43;;
3293;SDS011;1659;51.470;6.770;2023-04-25T09:59:20;5.10;;;2.50;;
3293;SDS011;1659;51.470;6.770;2023-04-25T10:01:47;4.73;;;1.90;;
3293;SDS011;1659;51.470;6.770;2023-04-25T10:04:16;1.70;;;1.60;;
3293;SDS011;1659;51.470;6.770;2023-04-25T10:06:46;1.63;;;1.50;;
3293;SDS011;1659;51.470;6.770;2023-04-25T10:09:15;2.87;;;1.83;;
3293;SDS011;1659;51.470;6.770;2023-04-25T10:11:44;1.67;;;1.57;;
3293;SDS011;1659;51.470;6.770;2023-04-25T10:14:12;1.90;;;1.47;;
3293;SDS011;1659;51.470;6.770;2023-04-25T10:16:40;4.13;;;1.80;;
3293;SDS011;1659;51.470;6.770;2023-04-25T10:19:07;1.97;;;1.70;;
3293;SDS011;1659;51.470;6.770;2023-04-25T10:21:35;2.80;;;2.00;;
3293;SDS011;1659;51.470;6.770;2023-04-25T10:24:10;3.00;;;2.10;;
3293;SDS011;1659;51.470;6.770;2023-04-25T10:26:37;2.40;;;2.03;;
3293;SDS011;1659;51.470;6.770;2023-04-25T10:29:06;3.63;;;2.07;;
3293;SDS011;1659;51.470;6.770;2023-04-25T10:31:32;5.13;;;2.00;;
3293;SDS011;1659;51.470;6.770;2023-04-25T10:33:59;4.10;;;2.00;;
3293;SDS011;1659;51.470;6.770;2023-04-25T10:36:26;6.07;;;1.90;;
3293;SDS011;1659;51.470;6.770;2023-04-25T10:38:58;4.20;;;1.97;;
3293;SDS011;1659;51.470;6.770;2023-04-25T10:41:32;3.60;;;1.53;;
3293;SDS011;1659;51.470;6.770;2023-04-25T10:44:13;6.73;;;2.13;;
3293;SDS011;1659;51.470;6.770;2023-04-25T10:46:40;2.10;;;1.40;;
3293;SDS011;1659;51.470;6.770;2023-04-25T10:49:06;7.07;;;1.60;;
3293;SDS011;1659;51.470;6.770;2023-04-25T10:51:34;1.80;;;1.47;;
3293;SDS011;1659;51.470;6.770;2023-04-25T10:54:03;4.43;;;2.30;;
3293;SDS011;1659;51.470;6.770;2023-04-25T10:56:30;3.50;;;2.27;;
3293;SDS011;1659;51.470;6.770;2023-04-25T10:59:05;4.03;;;2.53;;
3293;SDS011;1659;51.470;6.770;2023-04-25T11:01:36;2.20;;;1.40;;
3293;SDS011;1659;51.470;6.770;2023-04-25T11:04:05;4.60;;;2.07;;
3293;SDS011;1659;51.470;6.770;2023-04-25T11:06:35;2.70;;;1.70;;
3293;SDS011;1659;51.470;6.770;2023-04-25T11:09:10;2.60;;;2.50;;
3293;SDS011;1659;51.470;6.770;2023-04-25T11:11:39;4.33;;;1.97;;
3293;SDS011;1659;51.470;6.770;2023-04-25T11:14:05;2.30;;;2.10;;
3293;SDS011;1659;51.470;6.770;2023-04-25T11:16:32;4.80;;;2.10;;
3293;SDS011;1659;51.470;6.770;2023-04-25T11:19:00;3.60;;;1.80;;
3293;SDS011;1659;51.470;6.770;2023-04-25T11:21:26;4.00;;;2.00;;
3293;SDS011;1659;51.470;6.770;2023-04-25T11:23:53;4.10;;;1.80;;
3293;SDS011;1659;51.470;6.770;2023-04-25T11:26:22;1.67;;;1.53;;
3293;SDS011;1659;51.470;6.770;2023-04-25T11:28:50;3.63;;;1.90;;
3293;SDS011;1659;51.470;6.770;2023-04-25T11:31:18;2.90;;;2.57;;
3293;SDS011;1659;51.470;6.770;2023-04-25T11:33:46;3.80;;;2.50;;
3293;SDS011;1659;51.470;6.770;2023-04-25T11:36:14;6.53;;;3.37;;
3293;SDS011;1659;51.470;6.770;2023-04-25T11:38:41;4.47;;;2.90;;
3293;SDS011;1659;51.470;6.770;2023-04-25T11:41:07;3.83;;;3.53;;
3293;SDS011;1659;51.470;6.770;2023-04-25T11:43:34;6.20;;;2.97;;
3293;SDS011;1659;51.470;6.770;2023-04-25T11:46:00;10.50;;;3.57;;
3293;SDS011;1659;51.470;6.770;2023-04-25T11:48:28;7.57;;;3.17;;
3293;SDS011;1659;51.470;6.770;2023-04-25T11:51:03;4.10;;;2.40;;
3293;SDS011;1659;51.470;6.770;2023-04-25T11:53:31;2.37;;;2.27;;
3293;SDS011;1659;51.470;6.770;2023-04-25T11:55:58;2.80;;;2.10;;
3293;SDS011;1659;51.470;6.770;2023-04-25T11:58:25;4.67;;;2.30;;
3293;SDS011;1659;51.470;6.770;2023-04-25T12:00:52;3.00;;;2.70;;
3293;SDS011;1659;51.470;6.770;2023-04-25T12:03:19;4.53;;;3.37;;
3293;SDS011;1659;51.470;6.770;2023-04-25T12:05:49;7.90;;;3.17;;
3293;SDS011;1659;51.470;6.770;2023-04-25T12:08:16;5.77;;;3.03;;
3293;SDS011;1659;51.470;6.770;2023-04-25T12:10:44;9.03;;;2.90;;
3293;SDS011;1659;51.470;6.770;2023-04-25T12:13:18;3.37;;;2.63;;
3293;SDS011;1659;51.470;6.770;2023-04-25T12:15:45;4.73;;;2.60;;
3293;SDS011;1659;51.470;6.770;2023-04-25T12:18:12;6.73;;;2.70;;
3293;SDS011;1659;51.470;6.770;2023-04-25T12:20:39;1.90;;;1.80;;
3293;SDS011;1659;51.470;6.770;2023-04-25T12:23:05;3.80;;;2.40;;
3293;SDS011;1659;51.470;6.770;2023-04-25T12:25:34;4.00;;;2.60;;
3293;SDS011;1659;51.470;6.770;2023-04-25T12:28:12;4.17;;;2.10;;
3293;SDS011;1659;51.470;6.770;2023-04-25T12:30:56;2.57;;;2.30;;
3293;SDS011;1659;51.470;6.770;2023-04-25T12:33:24;1.93;;;1.83;;
3293;SDS011;1659;51.470;6.770;2023-04-25T12:35:51;2.60;;;1.93;;
3293;SDS011;1659;51.470;6.770;2023-04-25T12:38:22;4.30;;;2.00;;
3293;SDS011;1659;51.470;6.770;2023-04-25T12:40:49;12.27;;;2.60;;
3293;SDS011;1659;51.470;6.770;2023-04-25T12:43:17;2.00;;;1.90;;
3293;SDS011;1659;51.470;6.770;2023-04-25T12:45:44;5.17;;;2.80;;
3293;SDS011;1659;51.470;6.770;2023-04-25T12:48:11;3.90;;;2.00;;
3293;SDS011;1659;51.470;6.770;2023-04-25T12:50:38;3.70;;;2.00;;
3293;SDS011;1659;51.470;6.770;2023-04-25T12:53:04;2.27;;;1.80;;
3293;SDS011;1659;51.470;6.770;2023-04-25T12:55:31;1.93;;;1.73;;
3293;SDS011;1659;51.470;6.770;2023-04-25T12:57:57;5.10;;;1.70;;
3293;SDS011;1659;51.470;6.770;2023-04-25T13:00:25;3.13;;;1.60;;
3293;SDS011;1659;51.470;6.770;2023-04-25T13:02:52;4.40;;;2.40;;
3293;SDS011;1659;51.470;6.770;2023-04-25T13:05:19;3.77;;;2.07;;
3293;SDS011;1659;51.470;6.770;2023-04-25T13:07:45;6.40;;;2.30;;
3293;SDS011;1659;51.470;6.770;2023-04-25T13:10:12;4.37;;;2.13;;
3293;SDS011;1659;51.470;6.770;2023-04-25T13:12:39;4.83;;;1.93;;
3293;SDS011;1659;51.470;6.770;2023-04-25T13:15:05;1.73;;;1.60;;
3293;SDS011;1659;51.470;6.770;2023-04-25T13:17:35;12.30;;;2.70;;
3293;SDS011;1659;51.470;6.770;2023-04-25T13:20:02;8.87;;;2.80;;
3293;SDS011;1659;51.470;6.770;2023-04-25T13:22:30;3.23;;;1.87;;
3293;SDS011;1659;51.470;6.770;2023-04-25T13:24:57;2.77;;;2.00;;
3293;SDS011;1659;51.470;6.770;2023-04-25T13:27:24;4.03;;;2.40;;
3293;SDS011;1659;51.470;6.770;2023-04-25T13:29:51;9.30;;;3.10;;
3293;SDS011;1659;51.470;6.770;2023-04-25T13:32:17;6.13;;;4.03;;
3293;SDS011;1659;51.470;6.770;2023-04-25T13:34:45;4.13;;;2.80;;
3293;SDS011;1659;51.470;6.770;2023-04-25T13:37:12;7.67;;;2.70;;
3293;SDS011;1659;51.470;6.770;2023-04-25T13:39:38;4.20;;;2.90;;
3293;SDS011;1659;51.470;6.770;2023-04-25T13:42:05;3.90;;;1.93;;
3293;SDS011;1659;51.470;6.770;2023-04-25T13:44:31;3.47;;;2.00;;
3293;SDS011;1659;51.470;6.770;2023-04-25T13:46:58;3.73;;;1.90;;
3293;SDS011;1659;51.470;6.770;2023-04-25T13:49:25;6.63;;;1.97;;
3293;SDS011;1659;51.470;6.770;2023-04-25T13:51:53;4.03;;;2.10;;
3293;SDS011;1659;51.470;6.770;2023-04-25T13:54:20;3.47;;;1.97;;
3293;SDS011;1659;51.470;6.770;2023-04-25T13:56:47;3.73;;;2.03;;
3293;SDS011;1659;51.470;6.770;2023-04-25T13:59:15;3.10;;;1.63;;
3293;SDS011;1659;51.470;6.770;2023-04-25T14:01:42;4.27;;;1.97;;
3293;SDS011;1659;51.470;6.770;2023-04-25T14:04:08;8.23;;;2.20;;
3293;SDS011;1659;51.470;6.770;2023-04-25T14:06:35;7.30;;;2.43;;
3293;SDS011;1659;51.470;6.770;2023-04-25T14:09:03;5.80;;;2.07;;
3293;SDS011;1659;51.470;6.770;2023-04-25T14:11:31;3.07;;;2.03;;
3293;SDS011;1659;51.470;6.770;2023-04-25T14:13:58;2.60;;;1.37;;
3293;SDS011;1659;51.470;6.770;2023-04-25T14:16:24;1.70;;;1.60;;
3293;SDS011;1659;51.470;6.770;2023-04-25T14:18:51;3.17;;;1.40;;
3293;SDS011;1659;51.470;6.770;2023-04-25T14:21:19;2.30;;;1.20;;
3293;SDS011;1659;51.470;6.770;2023-04-25T14:23:46;2.57;;;1.50;;
3293;SDS011;1659;51.470;6.770;2023-04-25T14:26:14;1.80;;;1.30;;
3293;SDS011;1659;51.470;6.770;2023-04-25T14:28:41;4.50;;;1.80;;
3293;SDS011;1659;51.470;6.770;2023-04-25T14:31:07;3.07;;;2.20;;
3293;SDS011;1659;51.470;6.770;2023-04-25T14:33:34;2.87;;;2.40;;
3293;SDS011;1659;51.470;6.770;2023-04-25T14:36:02;3.80;;;2.47;;
3293;SDS011;1659;51.470;6.770;2023-04-25T14:38:29;2.20;;;1.97;;
3293;SDS011;1659;51.470;6.770;2023-04-25T14:40:55;5.07;;;2.27;;
3293;SDS011;1659;51.470;6.770;2023-04-25T14:43:23;5.70;;;2.90;;
3293;SDS011;1659;51.470;6.770;2023-04-25T14:45:50;5.10;;;2.60;;
3293;SDS011;1659;51.470;6.770;2023-04-25T14:48:17;2.77;;;2.03;;
3293;SDS011;1659;51.470;6.770;2023-04-25T14:50:44;4.10;;;2.30;;
3293;SDS011;1659;51.470;6.770;2023-04-25T14:53:10;4.57;;;2.80;;
3293;SDS011;1659;51.470;6.770;2023-04-25T14:55:37;7.70;;;4.30;;
3293;SDS011;1659;51.470;6.770;2023-04-25T14:58:04;16.27;;;5.33;;
3293;SDS011;1659;51.470;6.770;2023-04-25T15:00:32;6.63;;;2.97;;
3293;SDS011;1659;51.470;6.770;2023-04-25T15:02:58;6.70;;;3.27;;
3293;SDS011;1659;51.470;6.770;2023-04-25T15:05:25;4.33;;;2.10;;
3293;SDS011;1659;51.470;6.770;2023-04-25T15:07:52;3.90;;;2.30;;
3293;SDS011;1659;51.470;6.770;2023-04-25T15:10:18;7.40;;;2.97;;
3293;SDS011;1659;51.470;6.770;2023-04-25T15:12:45;5.33;;;3.07;;
3293;SDS011;1659;51.470;6.770;2023-04-25T15:15:12;4.90;;;2.10;;
3293;SDS011;1659;51.470;6.770;2023-04-25T15:17:40;11.90;;;2.40;;
3293;SDS011;1659;51.470;6.770;2023-04-25T15:20:08;5.70;;;1.90;;
3293;SDS011;1659;51.470;6.770;2023-04-25T15:22:36;2.10;;;1.50;;
3293;SDS011;1659;51.470;6.770;2023-04-25T15:25:03;2.83;;;1.70;;
3293;SDS011;1659;51.470;6.770;2023-04-25T15:27:31;3.27;;;1.67;;
3293;SDS011;1659;51.470;6.770;2023-04-25T15:29:58;3.23;;;1.80;;
3293;SDS011;1659;51.470;6.770;2023-04-25T15:32:25;9.93;;;4.00;;
3293;SDS011;1659;51.470;6.770;2023-04-25T15:34:53;8.13;;;3.20;;
3293;SDS011;1659;51.470;6.770;2023-04-25T15:37:19;16.40;;;4.40;;
3293;SDS011;1659;51.470;6.770;2023-04-25T15:39:46;7.87;;;3.70;;